createdAt,value
2022-12-16T00:01:15.355Z,41.77
2022-12-16T00:03:49.211Z,43.87
2022-12-16T00:06:22.507Z,41.70
2022-12-16T00:08:51.936Z,39.90
2022-12-16T00:11:21.060Z,40.23
2022-12-16T00:13:50.212Z,38.63
2022-12-16T00:16:21.137Z,42.00
2022-12-16T00:18:51.944Z,40.30
2022-12-16T00:21:28.195Z,37.65
2022-12-16T00:23:57.642Z,38.23
2022-12-16T00:26:26.364Z,37.77
2022-12-16T00:28:56.000Z,39.33
2022-12-16T00:31:24.823Z,36.90
2022-12-16T00:33:57.987Z,35.33
2022-12-16T00:36:29.996Z,38.78
2022-12-16T00:38:58.810Z,38.77
2022-12-16T00:41:27.530Z,37.70
2022-12-16T00:43:56.305Z,38.27
2022-12-16T00:46:25.401Z,39.43
2022-12-16T00:48:54.463Z,39.27
2022-12-16T00:51:24.224Z,37.87
2022-12-16T00:53:52.960Z,37.97
2022-12-16T00:56:23.296Z,36.63
2022-12-16T00:58:52.999Z,36.90
2022-12-16T01:01:23.814Z,34.87
2022-12-16T01:03:55.554Z,35.07
2022-12-16T01:06:24.374Z,32.93
2022-12-16T01:08:53.068Z,36.13
2022-12-16T01:11:23.945Z,35.30
2022-12-16T01:13:54.967Z,33.60
2022-12-16T01:16:24.515Z,34.20
2022-12-16T01:18:55.708Z,34.97
2022-12-16T01:21:24.520Z,33.80
2022-12-16T01:23:55.055Z,35.20
2022-12-16T01:26:24.365Z,34.13
2022-12-16T01:28:53.597Z,31.13
2022-12-16T01:31:24.766Z,34.10
2022-12-16T01:33:56.558Z,30.60
2022-12-16T01:36:26.177Z,31.07
2022-12-16T01:38:55.090Z,30.37
2022-12-16T01:41:24.056Z,34.33
2022-12-16T01:43:52.780Z,33.27
2022-12-16T01:46:24.869Z,33.03
2022-12-16T01:48:59.366Z,33.03
2022-12-16T01:51:33.365Z,29.30
2022-12-16T01:54:06.745Z,28.07
2022-12-16T01:56:37.527Z,30.27
2022-12-16T01:59:07.825Z,29.90
2022-12-16T02:01:37.604Z,27.93
2022-12-16T02:04:06.495Z,28.73
2022-12-16T02:06:35.220Z,29.53
2022-12-16T02:09:07.876Z,28.70
2022-12-16T02:11:55.814Z,29.90
2022-12-16T02:14:45.644Z,29.50
2022-12-16T02:17:20.984Z,30.33
2022-12-16T02:20:08.916Z,26.53
2022-12-16T02:22:51.686Z,28.83
2022-12-16T02:25:47.790Z,28.87
2022-12-16T02:28:32.482Z,26.07
2022-12-16T02:31:19.694Z,29.67
2022-12-16T02:33:59.058Z,25.37
2022-12-16T02:36:42.074Z,29.43
2022-12-16T02:39:18.944Z,29.10
2022-12-16T02:41:54.300Z,28.77
2022-12-16T02:44:33.969Z,30.33
2022-12-16T02:47:03.639Z,29.13
2022-12-16T02:49:54.533Z,28.80
2022-12-16T02:52:25.709Z,27.67
2022-12-16T02:54:59.412Z,27.03
2022-12-16T02:57:48.379Z,26.30
2022-12-16T03:00:20.560Z,27.20
2022-12-16T03:02:56.348Z,29.10
2022-12-16T03:05:30.943Z,28.77
2022-12-16T03:10:38.631Z,26.00
2022-12-16T03:13:14.793Z,27.20
2022-12-16T03:18:15.774Z,25.37
2022-12-16T03:20:50.656Z,24.93
2022-12-16T03:23:32.487Z,26.47
2022-12-16T03:26:08.752Z,19.87
2022-12-16T03:28:48.113Z,28.03
2022-12-16T03:31:26.677Z,28.20
2022-12-16T03:34:00.983Z,28.07
2022-12-16T03:36:34.931Z,29.60
2022-12-16T03:39:07.332Z,29.37
2022-12-16T03:41:36.678Z,29.03
2022-12-16T03:44:07.445Z,29.40
2022-12-16T03:46:36.356Z,29.93
2022-12-16T03:49:05.584Z,30.27
2022-12-16T03:51:34.492Z,26.67
2022-12-16T03:54:04.107Z,30.63
2022-12-16T03:56:33.059Z,29.90
2022-12-16T03:59:03.023Z,30.10
2022-12-16T04:01:32.174Z,29.07
2022-12-16T04:04:01.015Z,30.33
2022-12-16T04:06:29.879Z,31.03
2022-12-16T04:08:58.637Z,30.13
2022-12-16T04:11:45.612Z,28.00
2022-12-16T04:14:33.738Z,28.03
2022-12-16T04:17:33.524Z,30.87
2022-12-16T04:20:20.806Z,29.43
2022-12-16T04:23:08.747Z,26.47
2022-12-16T04:25:40.066Z,27.80
2022-12-16T04:28:11.527Z,29.03
2022-12-16T04:30:42.520Z,23.87
2022-12-16T04:33:33.362Z,27.17
2022-12-16T04:36:20.157Z,28.53
2022-12-16T04:39:07.177Z,28.47
2022-12-16T04:41:54.265Z,29.50
2022-12-16T04:44:41.783Z,30.63
2022-12-16T04:47:29.587Z,28.27
2022-12-16T04:50:19.652Z,30.00
2022-12-16T04:53:09.630Z,30.60
2022-12-16T04:56:03.890Z,31.37
2022-12-16T04:58:53.929Z,28.67
2022-12-16T05:01:41.152Z,28.17
2022-12-16T05:04:28.277Z,29.27
2022-12-16T05:07:15.363Z,28.47
2022-12-16T05:10:02.991Z,29.70
2022-12-16T05:12:51.131Z,23.90
2022-12-16T05:15:39.066Z,29.87
2022-12-16T05:18:35.001Z,27.50
2022-12-16T05:21:31.733Z,29.97
2022-12-16T05:24:19.431Z,30.27
2022-12-16T05:27:07.291Z,30.13
2022-12-16T05:29:54.835Z,29.03
2022-12-16T05:32:42.095Z,30.30
2022-12-16T05:35:29.874Z,30.37
2022-12-16T05:38:17.031Z,27.43
2022-12-16T05:41:12.357Z,30.33
2022-12-16T05:43:59.704Z,34.50
2022-12-16T05:46:47.412Z,32.40
2022-12-16T05:49:35.115Z,28.03
2022-12-16T05:52:24.459Z,30.00
2022-12-16T05:55:14.077Z,31.60
2022-12-16T05:58:01.551Z,29.60
2022-12-16T06:00:48.918Z,37.20
2022-12-16T06:03:37.249Z,33.07
2022-12-16T06:06:27.907Z,28.00
2022-12-16T06:09:15.675Z,36.37
2022-12-16T06:12:04.685Z,29.70
2022-12-16T06:14:52.190Z,30.13
2022-12-16T06:17:40.847Z,32.77
2022-12-16T06:20:30.324Z,32.43
2022-12-16T06:23:22.544Z,33.70
2022-12-16T06:26:12.566Z,35.48
2022-12-16T06:29:00.227Z,36.10
2022-12-16T06:31:47.638Z,32.43
2022-12-16T06:34:35.196Z,32.57
2022-12-16T06:37:22.208Z,34.33
2022-12-16T06:40:09.376Z,33.43
2022-12-16T06:42:59.403Z,33.80
2022-12-16T06:45:47.084Z,32.97
2022-12-16T06:48:48.754Z,35.47
2022-12-16T06:51:35.787Z,34.55
2022-12-16T06:54:23.481Z,36.80
2022-12-16T06:57:10.390Z,37.07
2022-12-16T06:59:56.830Z,28.20
2022-12-16T07:02:44.386Z,35.17
2022-12-16T07:05:31.930Z,34.77
2022-12-16T07:08:19.638Z,33.07
2022-12-16T07:11:16.752Z,33.40
2022-12-16T07:14:05.831Z,35.50
2022-12-16T07:16:53.309Z,32.37
2022-12-16T07:19:41.524Z,33.40
2022-12-16T07:22:29.228Z,34.30
2022-12-16T07:25:16.351Z,33.07
2022-12-16T07:28:10.711Z,33.53
2022-12-16T07:31:02.336Z,33.83
2022-12-16T07:33:49.664Z,32.60
2022-12-16T07:36:37.299Z,32.03
2022-12-16T07:39:27.437Z,30.30
2022-12-16T07:42:15.485Z,31.23
2022-12-16T07:45:02.472Z,31.27
2022-12-16T07:47:49.596Z,27.57
2022-12-16T07:50:37.655Z,37.90
2022-12-16T07:53:31.243Z,35.07
2022-12-16T07:56:18.826Z,31.83
2022-12-16T07:59:06.055Z,34.50
2022-12-16T08:01:53.747Z,43.03
2022-12-16T08:04:45.384Z,38.10
2022-12-16T08:07:33.129Z,48.27
2022-12-16T08:10:20.181Z,39.80
2022-12-16T08:13:07.826Z,34.77
2022-12-16T08:15:57.888Z,37.07
2022-12-16T08:18:45.098Z,34.80
2022-12-16T08:21:35.273Z,35.47
2022-12-16T08:24:25.466Z,36.50
2022-12-16T08:27:13.091Z,31.97
2022-12-16T08:30:00.963Z,31.37
2022-12-16T08:32:47.337Z,36.83
2022-12-16T08:35:34.651Z,37.40
2022-12-16T08:38:22.001Z,29.63
2022-12-16T08:41:09.811Z,37.03
2022-12-16T08:43:57.771Z,34.57
2022-12-16T08:46:45.489Z,32.93
2022-12-16T08:49:33.067Z,33.83
2022-12-16T08:52:20.754Z,34.93
2022-12-16T08:55:27.783Z,34.53
2022-12-16T08:58:16.563Z,34.13
2022-12-16T09:01:07.888Z,34.53
2022-12-16T09:03:56.023Z,32.10
2022-12-16T09:06:58.354Z,36.37
2022-12-16T09:09:46.169Z,37.40
2022-12-16T09:12:48.068Z,29.63
2022-12-16T09:15:35.753Z,34.90
2022-12-16T09:18:25.755Z,33.37
2022-12-16T09:21:13.281Z,33.57
2022-12-16T09:24:00.291Z,31.70
2022-12-16T09:26:48.747Z,30.20
2022-12-16T09:29:45.194Z,37.03
2022-12-16T09:32:33.835Z,34.60
2022-12-16T09:35:23.571Z,33.27
2022-12-16T09:38:12.808Z,28.47
2022-12-16T09:41:04.972Z,35.67
2022-12-16T09:44:15.072Z,33.27
2022-12-16T09:47:25.958Z,37.20
2022-12-16T09:50:14.201Z,36.03
2022-12-16T09:53:05.314Z,34.83
2022-12-16T09:55:58.465Z,33.00
2022-12-16T09:58:49.487Z,33.47
2022-12-16T10:01:37.578Z,29.87
2022-12-16T10:04:26.667Z,30.47
2022-12-16T10:07:30.455Z,30.27
2022-12-16T10:10:26.492Z,34.13
2022-12-16T10:13:21.631Z,27.10
2022-12-16T10:16:14.970Z,38.40
2022-12-16T10:19:11.448Z,37.07
2022-12-16T10:22:07.960Z,34.93
2022-12-16T10:25:05.613Z,34.13
2022-12-16T10:28:01.972Z,31.87
2022-12-16T10:30:51.091Z,33.37
2022-12-16T10:33:46.193Z,26.13
2022-12-16T10:36:39.213Z,32.33
2022-12-16T10:39:41.072Z,37.23
2022-12-16T10:42:38.645Z,32.63
2022-12-16T10:45:40.141Z,33.20
2022-12-16T10:48:28.590Z,36.77
2022-12-16T10:51:18.129Z,34.13
2022-12-16T10:54:07.256Z,34.20
2022-12-16T10:57:09.623Z,36.73
2022-12-16T10:59:59.580Z,35.37
2022-12-16T11:02:49.036Z,36.87
2022-12-16T11:05:50.119Z,37.90
2022-12-16T11:08:48.975Z,36.33
2022-12-16T11:11:42.937Z,31.33
2022-12-16T11:14:50.372Z,29.93
2022-12-16T11:17:49.043Z,31.60
2022-12-16T11:20:39.075Z,32.20
2022-12-16T11:23:38.807Z,34.30
2022-12-16T11:26:36.720Z,34.23
2022-12-16T11:29:36.609Z,35.70
2022-12-16T11:32:34.269Z,39.93
2022-12-16T11:35:24.463Z,42.47
2022-12-16T11:38:13.448Z,41.40
2022-12-16T11:41:01.460Z,38.40
2022-12-16T11:43:50.972Z,36.27
2022-12-16T11:46:43.573Z,37.40
2022-12-16T11:49:40.807Z,35.27
2022-12-16T11:52:39.205Z,34.43
2022-12-16T11:58:55.288Z,30.47
2022-12-16T12:04:34.435Z,31.87
2022-12-16T12:07:45.303Z,30.30
2022-12-16T12:10:56.446Z,32.80
2022-12-16T12:14:02.376Z,33.17
2022-12-16T12:16:59.861Z,31.07
2022-12-16T12:19:58.872Z,30.83
2022-12-16T12:22:53.611Z,24.47
2022-12-16T12:25:50.608Z,28.00
2022-12-16T12:28:47.800Z,31.47
2022-12-16T12:31:48.799Z,28.45
2022-12-16T12:34:43.417Z,28.47
2022-12-16T12:40:40.237Z,32.17
2022-12-16T12:43:42.474Z,27.90
2022-12-16T12:46:39.652Z,33.87
2022-12-16T12:49:35.658Z,31.23
2022-12-16T12:52:34.027Z,28.83
2022-12-16T12:55:29.424Z,30.60
2022-12-16T12:58:19.924Z,30.97
2022-12-16T13:01:13.349Z,30.83
2022-12-16T13:04:06.658Z,32.33
2022-12-16T13:06:56.222Z,29.63
2022-12-16T13:09:47.079Z,33.47
2022-12-16T13:12:49.011Z,34.90
2022-12-16T13:15:52.768Z,28.70
2022-12-16T13:18:45.344Z,34.13
2022-12-16T13:22:02.789Z,29.60
2022-12-16T13:24:59.352Z,28.30
2022-12-16T13:27:48.350Z,31.63
2022-12-16T13:30:44.105Z,30.00
2022-12-16T13:34:03.974Z,30.53
2022-12-16T13:36:54.320Z,29.77
2022-12-16T13:39:46.320Z,30.47
2022-12-16T13:43:13.237Z,31.00
2022-12-16T13:46:22.636Z,29.37
2022-12-16T13:49:10.355Z,31.30
2022-12-16T13:52:20.534Z,30.57
2022-12-16T13:55:21.422Z,31.60
2022-12-16T13:58:18.209Z,29.63
2022-12-16T14:01:17.356Z,32.43
2022-12-16T14:04:08.074Z,28.83
2022-12-16T14:06:57.276Z,32.37
2022-12-16T14:09:52.572Z,28.40
2022-12-16T14:13:04.475Z,25.17
2022-12-16T14:16:05.054Z,31.17
2022-12-16T14:19:03.695Z,28.73
2022-12-16T14:21:59.658Z,33.80
2022-12-16T14:24:48.380Z,30.30
2022-12-16T14:27:38.931Z,34.00
2022-12-16T14:30:38.329Z,33.60
2022-12-16T14:33:43.131Z,36.47
2022-12-16T14:36:40.293Z,33.13
2022-12-16T14:39:38.735Z,30.87
2022-12-16T14:42:38.297Z,33.17
2022-12-16T14:45:41.094Z,29.17
2022-12-16T14:48:49.450Z,34.07
2022-12-16T14:51:46.932Z,34.33
2022-12-16T14:54:43.791Z,32.73
2022-12-16T14:57:34.358Z,36.07
2022-12-16T15:00:34.460Z,33.53
2022-12-16T15:03:31.915Z,32.17
2022-12-16T15:06:22.073Z,37.07
2022-12-16T15:09:13.017Z,34.20
2022-12-16T15:12:03.006Z,32.47
2022-12-16T15:14:53.798Z,31.57
2022-12-16T15:17:44.568Z,28.70
2022-12-16T15:20:38.941Z,33.07
2022-12-16T15:23:35.606Z,30.02
2022-12-16T15:26:23.830Z,34.50
2022-12-16T15:29:11.466Z,29.57
2022-12-16T15:32:03.384Z,30.33
2022-12-16T15:35:03.923Z,27.57
2022-12-16T15:38:03.625Z,30.03
2022-12-16T15:40:57.283Z,30.17
2022-12-16T15:43:48.650Z,25.73
2022-12-16T15:46:39.210Z,31.17
2022-12-16T15:49:37.890Z,31.23
2022-12-16T15:52:48.987Z,27.80
2022-12-16T15:55:47.388Z,24.57
2022-12-16T15:58:39.938Z,30.60
2022-12-16T16:01:30.942Z,28.30
2022-12-16T16:04:32.508Z,28.17
2022-12-16T16:07:20.153Z,26.53
2022-12-16T16:10:10.486Z,26.27
2022-12-16T16:12:58.201Z,31.20
2022-12-16T16:15:46.235Z,30.27
2022-12-16T16:18:33.781Z,34.83
2022-12-16T16:21:21.167Z,32.40
2022-12-16T16:24:10.872Z,29.87
2022-12-16T16:27:15.841Z,28.67
2022-12-16T16:30:03.240Z,28.20
2022-12-16T16:32:51.406Z,25.37
2022-12-16T16:35:40.929Z,23.75
2022-12-16T16:38:30.411Z,27.57
2022-12-16T16:41:18.109Z,26.77
2022-12-16T16:44:07.285Z,26.93
2022-12-16T16:46:59.319Z,29.90
2022-12-16T16:49:49.723Z,25.07
2022-12-16T16:52:39.561Z,26.47
2022-12-16T16:55:34.167Z,27.97
2022-12-16T16:58:31.089Z,26.12
2022-12-16T17:01:18.916Z,29.93
2022-12-16T17:04:18.489Z,27.20
2022-12-16T17:07:09.005Z,27.00
2022-12-16T17:09:57.773Z,27.93
2022-12-16T17:12:47.734Z,26.40
2022-12-16T17:15:42.713Z,27.33
2022-12-16T17:18:34.752Z,29.13
2022-12-16T17:21:23.975Z,26.40
2022-12-16T17:24:12.313Z,24.35
2022-12-16T17:27:02.777Z,29.90
2022-12-16T17:29:50.766Z,25.57
2022-12-16T17:32:38.652Z,32.23
2022-12-16T17:35:29.783Z,30.70
2022-12-16T17:38:16.844Z,29.97
2022-12-16T17:41:14.409Z,32.23
2022-12-16T17:44:02.685Z,32.20
2022-12-16T17:46:49.962Z,29.17
2022-12-16T17:49:37.972Z,29.63
2022-12-16T17:52:26.395Z,28.53
2022-12-16T17:55:13.790Z,29.53
2022-12-16T17:58:01.773Z,30.97
2022-12-16T18:00:49.034Z,30.53
2022-12-16T18:03:36.876Z,25.13
2022-12-16T18:06:27.571Z,29.43
2022-12-16T18:09:14.948Z,27.30
2022-12-16T18:12:02.746Z,31.73
2022-12-16T18:14:54.484Z,29.63
2022-12-16T18:17:41.908Z,29.67
2022-12-16T18:20:29.692Z,29.47
2022-12-16T18:23:17.035Z,30.90
2022-12-16T18:26:14.763Z,29.00
2022-12-16T18:29:02.128Z,24.37
2022-12-16T18:31:49.722Z,29.53
2022-12-16T18:34:37.792Z,27.63
2022-12-16T18:37:29.335Z,30.23
2022-12-16T18:40:17.151Z,31.67
2022-12-16T18:43:04.910Z,28.33
2022-12-16T18:46:01.116Z,27.87
2022-12-16T18:48:48.821Z,25.55
2022-12-16T18:51:37.266Z,26.53
2022-12-16T18:54:27.434Z,28.10
2022-12-16T18:57:15.019Z,26.63
2022-12-16T19:00:02.647Z,27.27
2022-12-16T19:02:50.010Z,26.80
2022-12-16T19:05:46.735Z,27.70
2022-12-16T19:08:35.125Z,24.63
2022-12-16T19:11:26.152Z,25.10
2022-12-16T19:14:17.490Z,24.73
2022-12-16T19:17:16.945Z,27.13
2022-12-16T19:20:07.381Z,27.03
2022-12-16T19:22:55.250Z,25.43
2022-12-16T19:25:44.555Z,27.50
2022-12-16T19:28:33.093Z,25.50
2022-12-16T19:31:20.832Z,24.97
2022-12-16T19:34:12.716Z,25.20
2022-12-16T19:37:00.635Z,26.47
2022-12-16T19:39:47.949Z,26.43
2022-12-16T19:42:35.577Z,30.07
2022-12-16T19:45:24.676Z,30.37
2022-12-16T19:48:19.946Z,26.10
2022-12-16T19:51:07.414Z,28.13
2022-12-16T19:53:56.183Z,26.13
2022-12-16T19:56:43.989Z,29.77
2022-12-16T19:59:39.497Z,28.37
2022-12-16T20:02:31.082Z,30.47
2022-12-16T20:05:18.961Z,28.23
2022-12-16T20:08:07.134Z,26.53
2022-12-16T20:11:00.572Z,31.37
2022-12-16T20:13:50.555Z,28.50
2022-12-16T20:16:40.736Z,29.40
2022-12-16T20:19:28.378Z,27.73
2022-12-16T20:22:17.260Z,30.27
2022-12-16T20:25:09.523Z,25.63
2022-12-16T20:28:11.956Z,30.30
2022-12-16T20:31:02.044Z,30.97
2022-12-16T20:33:49.566Z,28.33
2022-12-16T20:36:38.501Z,26.97
2022-12-16T20:39:28.408Z,30.77
2022-12-16T20:42:15.735Z,30.40
2022-12-16T20:45:03.065Z,28.17
2022-12-16T20:47:50.581Z,30.70
2022-12-16T20:50:39.172Z,29.37
2022-12-16T20:53:27.177Z,29.17
2022-12-16T20:56:24.035Z,28.10
2022-12-16T20:59:11.893Z,33.27
2022-12-16T21:02:25.193Z,31.23
2022-12-16T21:05:14.612Z,31.00
2022-12-16T21:08:03.225Z,30.83
2022-12-16T21:10:51.657Z,30.13
2022-12-16T21:13:39.324Z,25.13
2022-12-16T21:16:28.513Z,29.27
2022-12-16T21:19:16.242Z,26.83
2022-12-16T21:22:03.723Z,25.17
2022-12-16T21:24:51.763Z,26.37
2022-12-16T21:27:39.312Z,28.73
2022-12-16T21:30:35.451Z,25.73
2022-12-16T21:33:36.576Z,27.83
2022-12-16T21:36:27.580Z,27.60
2022-12-16T21:39:14.961Z,31.43
2022-12-16T21:42:04.788Z,27.87
2022-12-16T21:44:53.461Z,27.77
2022-12-16T21:47:44.010Z,28.07
2022-12-16T21:50:31.555Z,28.80
2022-12-16T21:53:34.204Z,29.43
2022-12-16T21:56:21.184Z,29.47
2022-12-16T21:59:08.472Z,29.43
2022-12-16T22:01:57.296Z,29.90
2022-12-16T22:04:44.944Z,26.57
2022-12-16T22:07:34.917Z,29.27
2022-12-16T22:10:22.768Z,25.03
2022-12-16T22:13:10.245Z,30.67
2022-12-16T22:16:02.726Z,28.67
2022-12-16T22:19:00.802Z,29.13
2022-12-16T22:21:48.235Z,27.13
2022-12-16T22:24:35.767Z,28.37
2022-12-16T22:27:23.051Z,29.40
2022-12-16T22:30:15.985Z,29.07
2022-12-16T22:33:04.539Z,26.97
2022-12-16T22:35:52.415Z,27.00
2022-12-16T22:38:40.031Z,29.50
2022-12-16T22:41:28.930Z,30.30
2022-12-16T22:44:16.234Z,29.10
2022-12-16T22:47:03.705Z,27.73
2022-12-16T22:49:50.963Z,27.83
2022-12-16T22:52:42.721Z,27.85
2022-12-16T22:55:30.310Z,25.60
2022-12-16T22:58:18.048Z,27.40
2022-12-16T23:01:09.451Z,28.10
2022-12-16T23:03:58.203Z,29.27
2022-12-16T23:06:45.928Z,21.33
2022-12-16T23:09:33.500Z,24.17
2022-12-16T23:12:20.683Z,26.03
2022-12-16T23:15:08.065Z,26.80
2022-12-16T23:17:55.536Z,27.67
2022-12-16T23:20:43.831Z,25.83
2022-12-16T23:23:31.636Z,26.23
2022-12-16T23:26:20.735Z,27.03
2022-12-16T23:29:09.993Z,27.20
2022-12-16T23:31:59.751Z,24.53
2022-12-16T23:34:47.168Z,25.13
2022-12-16T23:37:34.506Z,27.47
2022-12-16T23:40:22.529Z,28.55
2022-12-16T23:43:12.988Z,26.33
2022-12-16T23:46:03.906Z,28.40
2022-12-16T23:48:50.880Z,26.83
2022-12-16T23:51:39.301Z,26.80
2022-12-16T23:54:27.411Z,28.90
2022-12-16T23:57:16.796Z,27.40
